FYWE Airport Information

Runway Information
Runway 01 Length 7381 ft width 98 ft Elevation 5575 ft Threshold N/A Heading 351
Runway 19 Length 7381 ft Width 98 ft Elevation 5510 ft Threshold 984 ft Heading 171
Runway 09 Length 3297 ft width 98 ft Elevation 5572 ft Threshold N/A Heading 76
Runway 27 Length 3297 ft Width 98 ft Elevation 5568 ft Threshold N/A Heading 256
Airport Frequencies
Type GTE Name APRON Frequency 121.7 MHZ
Type TWR Name TWR Frequency 118.7 MHZ
Airport Navaids
Airport Weather Information & NOTAM
ADDS - METARS form results

(1726 UTC 02 December 2022)
Data provider http://aviationweather.gov/metar/data/
 
Forecast for: FYWE (EROS AIRPORT , NA)
Text: TAF FYWE 021700Z 0218/0303 14003KT 9999 FEW045CB SCT050TCU
Forecast period: 1800 UTC 02 December 2022 to 0300 UTC 03 December 2022
Forecast type: FROM: standard forecast or significant change
Winds: from the SE (140 degrees) at 3 MPH (3 knots; 1.5 m/s)
Visibility: 6 or more miles (10+ km)
Ceiling: at least 12,000 feet AGL
Clouds: few clouds at 4500 feet AGL
scattered clouds at 5000 feet AGL
Weather: no significant weather forecast for this period
Text: PROB30
Forecast period: 2100 UTC 02 December 2022 to 0100 UTC 03 December 2022
Forecast type: TEMPORARY: The following changes expected for less than half the time period
Visibility: missing
Ceiling: 8000 feet AGL
Clouds: few clouds at 4000 feet AGL
broken clouds at 8000 feet AGL
Weather: -TSRA  (light rain associated with thunderstorm(s))